Time;durP1;ratioP1;P1;durP2;ratioP2;P2;SDS_P1;SDS_P2;PMS_P1;PMS_P2;Temp;Humidity;BMP_temperature;BMP_pressure;BME280_temperature;BME280_humidity;BME280_pressure;Samples;Min_cycle;Max_cycle;Signal;HPM_P1;HPM_P2
2023/05/30 00:02:08;;;;;;;1999.90;999.90;;;12.70;62.30;;;;;;5017727;28;20714;-88
2023/05/30 00:04:34;;;;;;;1999.90;999.90;;;12.70;62.40;;;;;;5042117;28;20033;-88
2023/05/30 00:06:59;;;;;;;1999.90;999.90;;;12.80;62.10;;;;;;5035420;28;20068;-89
2023/05/30 00:09:25;;;;;;;1999.90;999.90;;;12.80;62.40;;;;;;5038676;28;20369;-90
2023/05/30 00:11:54;;;;;;;1999.90;999.90;;;12.80;62.10;;;;;;5037939;28;20400;-90
2023/05/30 00:14:20;;;;;;;1999.90;999.90;;;12.70;62.60;;;;;;5034087;28;20056;-89
2023/05/30 00:16:46;;;;;;;1999.90;999.90;;;12.70;63.00;;;;;;5040432;28;20588;-88
2023/05/30 00:19:13;;;;;;;1999.90;999.90;;;12.60;63.00;;;;;;5043458;28;20053;-87
2023/05/30 00:21:39;;;;;;;1999.90;999.90;;;12.50;63.50;;;;;;5036155;28;20025;-89
2023/05/30 00:24:05;;;;;;;1999.90;999.90;;;12.40;64.30;;;;;;5044364;28;20029;-89
2023/05/30 00:26:31;;;;;;;1999.90;999.90;;;12.40;64.50;;;;;;5039387;28;20076;-89
2023/05/30 00:28:57;;;;;;;1999.90;999.90;;;12.40;64.70;;;;;;5035132;28;20374;-89
2023/05/30 00:31:23;;;;;;;1999.90;999.90;;;12.40;64.30;;;;;;5038764;28;20030;-88
2023/05/30 00:33:49;;;;;;;1999.90;999.90;;;12.30;65.00;;;;;;5036500;28;20034;-88
2023/05/30 00:36:15;;;;;;;1999.90;999.90;;;12.20;64.80;;;;;;5044275;28;20033;-87
2023/05/30 00:38:41;;;;;;;1999.90;999.90;;;12.30;64.30;;;;;;5041042;28;20045;-90
2023/05/30 00:41:06;;;;;;;1999.90;999.90;;;12.20;65.20;;;;;;5024033;28;20055;-88
2023/05/30 00:43:32;;;;;;;1999.90;999.90;;;12.30;65.10;;;;;;5042133;28;20037;-87
2023/05/30 00:45:59;;;;;;;1999.90;999.90;;;12.30;66.30;;;;;;5042426;28;20064;-88
2023/05/30 00:48:25;;;;;;;1999.90;999.90;;;12.20;65.70;;;;;;5040710;28;20508;-89
2023/05/30 00:50:53;;;;;;;1999.90;999.90;;;12.20;65.90;;;;;;5022265;28;20041;-88
2023/05/30 00:53:20;;;;;;;1999.90;999.90;;;12.20;65.80;;;;;;5036324;28;20028;-88
2023/05/30 00:55:46;;;;;;;1999.90;999.90;;;12.20;65.90;;;;;;5046985;28;20135;-88
2023/05/30 00:58:12;;;;;;;1999.90;999.90;;;12.30;65.60;;;;;;5041210;28;20136;-87
2023/05/30 01:00:39;;;;;;;1999.90;999.90;;;12.30;65.80;;;;;;5038619;28;20039;-87
2023/05/30 01:03:06;;;;;;;1999.90;999.90;;;12.20;65.80;;;;;;5040609;28;20033;-88
2023/05/30 01:05:32;;;;;;;1999.90;999.90;;;12.20;66.10;;;;;;5018520;28;20501;-88
2023/05/30 01:07:58;;;;;;;1999.90;999.90;;;12.30;65.70;;;;;;5038370;28;20033;-87
2023/05/30 01:10:24;;;;;;;1999.90;999.90;;;12.20;66.10;;;;;;5041829;28;21416;-87
2023/05/30 01:13:32;;;;;;;1999.90;999.90;;;12.20;66.10;;;;;;5020502;28;20429;-88
2023/05/30 01:16:07;;;;;;;1999.90;999.90;;;12.20;66.60;;;;;;5030534;28;20030;-90
2023/05/30 01:18:46;;;;;;;1999.90;999.90;;;12.20;66.50;;;;;;5046802;28;20037;-89
2023/05/30 01:21:15;;;;;;;1999.90;999.90;;;12.20;66.50;;;;;;5043358;28;20044;-89
2023/05/30 01:24:06;;;;;;;1999.90;999.90;;;12.20;66.60;;;;;;5029795;28;20029;-87
2023/05/30 01:26:37;;;;;;;1999.90;999.90;;;12.20;66.60;;;;;;5036843;28;20033;-88
2023/05/30 01:29:04;;;;;;;1999.90;999.90;;;12.10;67.00;;;;;;5042892;28;20037;-89
2023/05/30 01:31:32;;;;;;;1999.90;999.90;;;12.10;66.90;;;;;;5029947;28;20014;-87
2023/05/30 01:34:00;;;;;;;1999.90;999.90;;;12.10;67.00;;;;;;5035074;28;20091;-88
2023/05/30 01:36:30;;;;;;;1999.90;999.90;;;12.10;67.20;;;;;;5037329;28;20045;-88
2023/05/30 01:38:56;;;;;;;1999.90;999.90;;;12.10;66.90;;;;;;5029498;28;20025;-87
2023/05/30 01:41:35;;;;;;;1999.90;999.90;;;12.10;66.70;;;;;;5030673;28;20064;-87
2023/05/30 01:44:15;;;;;;;1999.90;999.90;;;12.10;66.90;;;;;;5026337;28;20026;-88
2023/05/30 01:46:57;;;;;;;1999.90;999.90;;;12.10;66.90;;;;;;5037804;28;20061;-89
2023/05/30 01:49:45;;;;;;;1999.90;999.90;;;12.10;66.90;;;;;;5032000;28;20021;-88
2023/05/30 01:52:17;;;;;;;1999.90;999.90;;;12.00;67.20;;;;;;5031199;28;20029;-88
2023/05/30 01:54:46;;;;;;;1999.90;999.90;;;11.90;67.60;;;;;;5039499;28;20036;-89
2023/05/30 01:57:14;;;;;;;1999.90;999.90;;;11.90;67.50;;;;;;5034657;28;20022;-89
2023/05/30 01:59:42;;;;;;;1999.90;999.90;;;11.90;67.70;;;;;;5036598;28;20447;-88
2023/05/30 02:02:09;;;;;;;1999.90;999.90;;;11.80;69.10;;;;;;5017902;28;20488;-88
2023/05/30 02:04:35;;;;;;;1999.90;999.90;;;11.70;68.30;;;;;;5034058;28;20030;-88
2023/05/30 02:07:02;;;;;;;1999.90;999.90;;;11.70;68.50;;;;;;5040449;28;20116;-88
2023/05/30 02:09:28;;;;;;;1999.90;999.90;;;11.70;68.70;;;;;;5034840;28;20080;-88
2023/05/30 02:11:54;;;;;;;1999.90;999.90;;;11.60;69.60;;;;;;5036756;28;20090;-88
2023/05/30 02:14:20;;;;;;;1999.90;999.90;;;11.60;69.30;;;;;;5040058;28;20761;-87
2023/05/30 02:16:46;;;;;;;1999.90;999.90;;;11.60;69.00;;;;;;5034673;28;20051;-88
2023/05/30 02:19:12;;;;;;;1999.90;999.90;;;11.60;69.30;;;;;;5041162;28;20044;-88
2023/05/30 02:21:38;;;;;;;1999.90;999.90;;;11.60;69.00;;;;;;5037712;28;20079;-88
2023/05/30 02:24:04;;;;;;;1999.90;999.90;;;11.60;69.30;;;;;;5019434;28;20389;-88
2023/05/30 02:26:30;;;;;;;1999.90;999.90;;;11.60;68.90;;;;;;5036700;28;20068;-88
2023/05/30 02:28:56;;;;;;;1999.90;999.90;;;11.60;69.20;;;;;;5036644;28;20033;-88
2023/05/30 02:31:21;;;;;;;1999.90;999.90;;;11.50;69.30;;;;;;5036995;28;20084;-87
2023/05/30 02:33:47;;;;;;;1999.90;999.90;;;11.50;69.50;;;;;;5038486;28;20103;-87
2023/05/30 02:36:13;;;;;;;1999.90;999.90;;;11.50;69.30;;;;;;5034583;28;20029;-88
2023/05/30 02:38:38;;;;;;;1999.90;999.90;;;11.60;69.30;;;;;;5021003;28;20116;-87
2023/05/30 02:41:04;;;;;;;1999.90;999.90;;;11.50;69.20;;;;;;5034553;28;20098;-87
2023/05/30 02:43:30;;;;;;;1999.90;999.90;;;11.50;69.70;;;;;;5036603;28;20025;-88
2023/05/30 02:45:55;;;;;;;1999.90;999.90;;;11.50;69.00;;;;;;5039779;28;20041;-87
2023/05/30 02:48:21;;;;;;;1999.90;999.90;;;11.60;69.30;;;;;;5033935;28;20393;-89
2023/05/30 02:50:47;;;;;;;1999.90;999.90;;;11.60;69.30;;;;;;5037395;28;20108;-89
2023/05/30 02:53:12;;;;;;;1999.90;999.90;;;11.60;68.90;;;;;;5036612;28;20171;-88
2023/05/30 02:55:42;;;;;;;1999.90;999.90;;;11.60;68.90;;;;;;5033627;28;20108;-88
2023/05/30 02:58:08;;;;;;;1999.90;999.90;;;11.50;69.00;;;;;;5040805;28;20037;-88
2023/05/30 03:00:34;;;;;;;1999.90;999.90;;;11.50;69.20;;;;;;5033898;28;20040;-89
2023/05/30 03:03:00;;;;;;;1999.90;999.90;;;11.60;68.70;;;;;;5035822;28;20033;-88
2023/05/30 03:05:26;;;;;;;1999.90;999.90;;;11.50;69.40;;;;;;5024211;28;20049;-89
2023/05/30 03:07:51;;;;;;;1999.90;999.90;;;11.40;69.70;;;;;;5034644;28;20346;-88
2023/05/30 03:10:17;;;;;;;1999.90;999.90;;;11.40;70.10;;;;;;5038727;28;20037;-88
2023/05/30 03:12:43;;;;;;;1999.90;999.90;;;11.30;70.30;;;;;;5038060;28;20896;-88
2023/05/30 03:15:09;;;;;;;1999.90;999.90;;;11.30;70.20;;;;;;5030490;28;20029;-88
2023/05/30 03:17:35;;;;;;;1999.90;999.90;;;11.20;70.30;;;;;;5041552;28;20030;-88
2023/05/30 03:20:00;;;;;;;1999.90;999.90;;;11.20;70.40;;;;;;5017662;28;20057;-88
2023/05/30 03:22:26;;;;;;;1999.90;999.90;;;11.10;70.70;;;;;;5034950;28;20107;-87
2023/05/30 03:24:52;;;;;;;1999.90;999.90;;;11.10;71.00;;;;;;5041924;28;20041;-87
2023/05/30 03:27:17;;;;;;;1999.90;999.90;;;11.10;71.00;;;;;;5034024;28;20037;-87
2023/05/30 03:29:43;;;;;;;1999.90;999.90;;;10.90;71.00;;;;;;5038507;28;20029;-88
2023/05/30 03:32:09;;;;;;;1999.90;999.90;;;10.90;72.10;;;;;;5036699;28;20027;-88
2023/05/30 03:34:35;;;;;;;1999.90;999.90;;;10.80;71.30;;;;;;5033306;28;20487;-87
2023/05/30 03:37:01;;;;;;;1999.90;999.90;;;10.90;71.90;;;;;;5042904;28;20045;-88
2023/05/30 03:39:26;;;;;;;1999.90;999.90;;;10.90;71.50;;;;;;5032819;28;20030;-87
2023/05/30 03:41:52;;;;;;;1999.90;999.90;;;11.00;71.30;;;;;;5030937;28;20107;-87
2023/05/30 03:44:21;;;;;;;1999.90;999.90;;;11.00;71.50;;;;;;5038552;28;20089;-87
2023/05/30 03:46:47;;;;;;;1999.90;999.90;;;11.00;70.60;;;;;;5033972;28;20029;-87
2023/05/30 03:49:12;;;;;;;1999.90;999.90;;;11.00;71.00;;;;;;5043438;28;20459;-88
2023/05/30 03:51:38;;;;;;;1999.90;999.90;;;11.00;70.80;;;;;;5039559;28;20044;-88
2023/05/30 03:54:04;;;;;;;1999.90;999.90;;;11.10;70.60;;;;;;5018933;28;20140;-88
2023/05/30 03:56:29;;;;;;;1999.90;999.90;;;11.10;71.10;;;;;;5043649;28;20496;-86
2023/05/30 03:58:55;;;;;;;1999.90;999.90;;;11.10;71.10;;;;;;5040746;28;20033;-88
2023/05/30 04:01:20;;;;;;;1999.90;999.90;;;11.10;71.10;;;;;;5038842;28;20037;-87
2023/05/30 04:03:46;;;;;;;1999.90;999.90;;;11.10;71.20;;;;;;5039017;28;20062;-87
2023/05/30 04:06:12;;;;;;;1999.90;999.90;;;11.00;72.00;;;;;;5033753;28;20025;-87
2023/05/30 04:08:39;;;;;;;1999.90;999.90;;;11.20;70.90;;;;;;5042713;28;20082;-88
2023/05/30 04:11:06;;;;;;;1999.90;999.90;;;11.30;70.30;;;;;;5042595;28;20033;-88
2023/05/30 04:13:31;;;;;;;1999.90;999.90;;;11.40;71.00;;;;;;5034230;28;20033;-87
2023/05/30 04:15:59;;;;;;;1999.90;999.90;;;11.40;70.60;;;;;;5041562;28;20124;-87
2023/05/30 04:18:25;;;;;;;1999.90;999.90;;;11.50;70.00;;;;;;5040313;28;20029;-87
2023/05/30 04:20:51;;;;;;;1999.90;999.90;;;11.60;69.70;;;;;;5040992;28;20057;-89
2023/05/30 04:23:17;;;;;;;1999.90;999.90;;;11.70;69.40;;;;;;5065155;28;20025;-88
2023/05/30 04:25:44;;;;;;;1999.90;999.90;;;11.70;68.80;;;;;;5060518;28;20547;-87
2023/05/30 04:28:12;;;;;;;1999.90;999.90;;;11.80;69.20;;;;;;5061214;28;20031;-87
2023/05/30 04:30:38;;;;;;;1999.90;999.90;;;11.80;68.90;;;;;;5057473;28;20084;-87
2023/05/30 04:33:04;;;;;;;1999.90;999.90;;;11.80;68.90;;;;;;5058871;28;20037;-87
2023/05/30 04:35:32;;;;;;;1999.90;999.90;;;11.90;68.60;;;;;;5062607;28;20033;-87
2023/05/30 04:37:58;;;;;;;1999.90;999.90;;;11.90;68.80;;;;;;5057988;28;20104;-86
2023/05/30 04:40:25;;;;;;;1999.90;999.90;;;12.00;68.80;;;;;;5045256;28;20017;-86
2023/05/30 04:42:52;;;;;;;1999.90;999.90;;;12.00;68.10;;;;;;5042950;28;20041;-87
2023/05/30 04:45:18;;;;;;;1999.90;999.90;;;12.00;68.00;;;;;;5048700;28;20248;-87
2023/05/30 04:47:47;;;;;;;1999.90;999.90;;;12.00;68.80;;;;;;5059812;28;20034;-87
2023/05/30 04:50:14;;;;;;;1999.90;999.90;;;12.00;68.80;;;;;;5044306;28;20025;-87
2023/05/30 04:52:41;;;;;;;1999.90;999.90;;;12.10;68.20;;;;;;5061668;28;20032;-87
2023/05/30 04:55:08;;;;;;;1999.90;999.90;;;12.20;68.70;;;;;;5059383;28;20097;-87
2023/05/30 04:57:33;;;;;;;1999.90;999.90;;;12.20;67.80;;;;;;5059973;28;20021;-86
2023/05/30 04:59:59;;;;;;;1999.90;999.90;;;12.20;68.40;;;;;;5056150;28;20044;-87
2023/05/30 05:02:28;;;;;;;1999.90;999.90;;;12.30;68.50;;;;;;5059078;28;20037;-86
2023/05/30 05:04:54;;;;;;;1999.90;999.90;;;12.40;67.50;;;;;;5059032;28;20032;-86
2023/05/30 05:07:19;;;;;;;1999.90;999.90;;;12.40;67.80;;;;;;5057067;28;20021;-86
2023/05/30 05:09:45;;;;;;;1999.90;999.90;;;12.60;67.60;;;;;;5047117;28;20444;-88
2023/05/30 05:12:13;;;;;;;1999.90;999.90;;;12.50;68.10;;;;;;5039979;28;20589;-87
2023/05/30 05:14:40;;;;;;;1999.90;999.90;;;12.60;67.50;;;;;;5043315;28;20021;-88
2023/05/30 05:17:06;;;;;;;1999.90;999.90;;;12.80;66.70;;;;;;5036940;28;20351;-87
2023/05/30 05:19:32;;;;;;;1999.90;999.90;;;12.80;67.50;;;;;;5041084;28;20124;-87
2023/05/30 05:21:57;;;;;;;1999.90;999.90;;;12.80;68.00;;;;;;5048693;28;20112;-87
2023/05/30 05:24:23;;;;;;;1999.90;999.90;;;12.80;67.80;;;;;;5042310;28;20049;-87
2023/05/30 05:26:48;;;;;;;1999.90;999.90;;;12.90;67.00;;;;;;5046181;28;20402;-87
2023/05/30 05:29:14;;;;;;;1999.90;999.90;;;13.00;66.30;;;;;;5043245;28;20493;-87
2023/05/30 05:31:40;;;;;;;1999.90;999.90;;;13.20;66.40;;;;;;5035096;28;20040;-87
2023/05/30 05:34:06;;;;;;;1999.90;999.90;;;13.20;66.50;;;;;;5030856;28;20030;-87
2023/05/30 05:36:32;;;;;;;1999.90;999.90;;;13.40;65.90;;;;;;5030881;28;20029;-87
2023/05/30 05:38:57;;;;;;;1999.90;999.90;;;13.30;67.00;;;;;;5041251;28;20124;-86
2023/05/30 05:41:23;;;;;;;1999.90;999.90;;;13.30;66.20;;;;;;5036210;28;20553;-87
2023/05/30 05:43:48;;;;;;;1999.90;999.90;;;13.30;66.10;;;;;;5021497;28;20539;-87
2023/05/30 05:46:14;;;;;;;1999.90;999.90;;;13.40;66.50;;;;;;5037444;28;20104;-87
2023/05/30 05:48:40;;;;;;;1999.90;999.90;;;13.40;66.80;;;;;;5034673;28;20068;-87
2023/05/30 05:51:06;;;;;;;1999.90;999.90;;;13.40;67.30;;;;;;5034933;28;20036;-87
2023/05/30 05:53:32;;;;;;;1999.90;999.90;;;13.40;66.80;;;;;;5036556;28;20025;-87
2023/05/30 05:56:00;;;;;;;1999.90;999.90;;;13.50;66.30;;;;;;5031105;28;20103;-87
2023/05/30 05:58:25;;;;;;;1999.90;999.90;;;13.50;67.40;;;;;;5039524;28;20041;-87
2023/05/30 06:00:52;;;;;;;1999.90;999.90;;;13.50;67.40;;;;;;5035790;28;20037;-86
2023/05/30 06:03:17;;;;;;;1999.90;999.90;;;13.50;67.50;;;;;;5039149;28;20035;-86
2023/05/30 06:05:43;;;;;;;1999.90;999.90;;;13.70;66.80;;;;;;5041027;28;20033;-87
2023/05/30 06:08:08;;;;;;;1999.90;999.90;;;13.70;67.50;;;;;;5033914;28;20033;-86
2023/05/30 06:10:34;;;;;;;1999.90;999.90;;;13.80;66.50;;;;;;5036990;28;20064;-86
2023/05/30 06:13:00;;;;;;;1999.90;999.90;;;13.80;66.00;;;;;;5037634;28;20041;-86
2023/05/30 06:15:25;;;;;;;1999.90;999.90;;;13.80;65.80;;;;;;5032817;28;20105;-86
2023/05/30 06:17:51;;;;;;;1999.90;999.90;;;13.90;65.40;;;;;;5042657;28;20052;-86
2023/05/30 06:20:17;;;;;;;1999.90;999.90;;;14.00;65.80;;;;;;5020025;28;20057;-86
2023/05/30 06:22:42;;;;;;;1999.90;999.90;;;14.10;65.60;;;;;;5035345;28;20051;-86
2023/05/30 06:25:08;;;;;;;1999.90;999.90;;;14.20;65.10;;;;;;5035940;28;20029;-87
2023/05/30 06:27:34;;;;;;;1999.90;999.90;;;14.40;64.20;;;;;;5034907;28;20026;-86
2023/05/30 06:30:00;;;;;;;1999.90;999.90;;;14.50;65.00;;;;;;5038146;28;20138;-86
2023/05/30 06:32:26;;;;;;;1999.90;999.90;;;14.60;64.20;;;;;;5040542;28;20493;-86
2023/05/30 06:34:51;;;;;;;1999.90;999.90;;;14.70;64.10;;;;;;5032148;28;20120;-87
2023/05/30 06:37:17;;;;;;;1999.90;999.90;;;14.90;62.80;;;;;;5042877;28;20766;-86
2023/05/30 06:39:43;;;;;;;1999.90;999.90;;;15.10;61.70;;;;;;5036261;28;20515;-86
2023/05/30 06:42:10;;;;;;;1999.90;999.90;;;15.00;61.70;;;;;;5037534;28;20038;-86
2023/05/30 06:44:36;;;;;;;1999.90;999.90;;;15.00;61.30;;;;;;5036162;28;20037;-87
2023/05/30 06:47:02;;;;;;;1999.90;999.90;;;15.20;61.40;;;;;;5033091;28;20455;-87
2023/05/30 06:49:27;;;;;;;1999.90;999.90;;;15.20;61.10;;;;;;5037673;28;20029;-86
2023/05/30 06:51:53;;;;;;;1999.90;999.90;;;15.20;62.60;;;;;;5019411;28;20029;-86
2023/05/30 06:54:18;;;;;;;1999.90;999.90;;;15.50;61.60;;;;;;5033959;28;20057;-87
2023/05/30 06:56:44;;;;;;;1999.90;999.90;;;15.40;60.40;;;;;;5040661;28;20059;-86
2023/05/30 06:59:10;;;;;;;1999.90;999.90;;;15.40;60.90;;;;;;5033216;28;20035;-86
2023/05/30 07:01:36;;;;;;;1999.90;999.90;;;15.60;60.50;;;;;;5032535;28;20040;-86
2023/05/30 07:04:01;;;;;;;1999.90;999.90;;;15.60;60.10;;;;;;5032993;28;20040;-86
2023/05/30 07:06:27;;;;;;;1999.90;999.90;;;15.60;58.90;;;;;;5033690;28;20029;-86
2023/05/30 07:08:52;;;;;;;1999.90;999.90;;;15.60;60.10;;;;;;5036402;28;20419;-86
2023/05/30 07:11:18;;;;;;;1999.90;999.90;;;15.70;58.70;;;;;;5040143;28;20025;-87
2023/05/30 07:13:44;;;;;;;1999.90;999.90;;;15.80;60.50;;;;;;5031546;28;20026;-86
2023/05/30 07:16:10;;;;;;;1999.90;999.90;;;16.00;59.20;;;;;;5038414;28;20033;-86
2023/05/30 07:18:35;;;;;;;1999.90;999.90;;;16.00;58.20;;;;;;5035338;28;20048;-86
2023/05/30 07:21:01;;;;;;;1999.90;999.90;;;15.90;58.50;;;;;;5033251;28;20052;-86
2023/05/30 07:23:27;;;;;;;1999.90;999.90;;;16.10;59.60;;;;;;5035368;28;20197;-86
2023/05/30 07:25:53;;;;;;;1999.90;999.90;;;16.30;59.90;;;;;;5033268;28;20090;-87
2023/05/30 07:28:20;;;;;;;1999.90;999.90;;;16.40;58.10;;;;;;5034884;28;20025;-86
2023/05/30 07:30:46;;;;;;;1999.90;999.90;;;16.50;57.60;;;;;;5036221;28;20033;-86
2023/05/30 07:33:12;;;;;;;1999.90;999.90;;;16.70;58.40;;;;;;5036143;28;20040;-86
2023/05/30 07:35:37;;;;;;;1999.90;999.90;;;16.80;56.00;;;;;;5034422;28;20036;-86
2023/05/30 07:38:03;;;;;;;1999.90;999.90;;;16.90;56.20;;;;;;5034441;28;20041;-86
2023/05/30 07:40:28;;;;;;;1999.90;999.90;;;17.30;55.70;;;;;;5034064;28;20036;-86
2023/05/30 07:42:54;;;;;;;1999.90;999.90;;;17.30;56.00;;;;;;5040041;28;20403;-86
2023/05/30 07:45:20;;;;;;;1999.90;999.90;;;17.30;54.90;;;;;;5033036;28;20049;-86
2023/05/30 07:47:46;;;;;;;1999.90;999.90;;;17.10;53.00;;;;;;5034489;28;20123;-86
2023/05/30 07:50:11;;;;;;;1999.90;999.90;;;17.10;54.50;;;;;;5037799;28;20042;-86
2023/05/30 07:52:37;;;;;;;1999.90;999.90;;;17.30;55.40;;;;;;5046355;28;20045;-86
2023/05/30 07:55:03;;;;;;;1999.90;999.90;;;17.50;54.60;;;;;;5041723;28;20393;-86
2023/05/30 07:57:30;;;;;;;1999.90;999.90;;;17.70;54.70;;;;;;5035764;28;20457;-86
2023/05/30 07:59:56;;;;;;;1999.90;999.90;;;17.70;52.80;;;;;;5031925;28;20036;-86
2023/05/30 08:02:25;;;;;;;1999.90;999.90;;;17.80;54.00;;;;;;5037238;28;20088;-86
2023/05/30 08:04:55;;;;;;;1999.90;999.90;;;17.80;54.00;;;;;;5030335;28;20053;-85
2023/05/30 08:07:21;;;;;;;1999.90;999.90;;;17.90;53.30;;;;;;5035939;28;20026;-86
2023/05/30 08:09:47;;;;;;;1999.90;999.90;;;18.00;53.10;;;;;;5035358;28;20033;-86
2023/05/30 08:12:17;;;;;;;1999.90;999.90;;;17.90;55.00;;;;;;5037015;28;20041;-86
2023/05/30 08:14:43;;;;;;;1999.90;999.90;;;18.10;53.30;;;;;;5034680;28;20029;-85
2023/05/30 08:17:11;;;;;;;1999.90;999.90;;;18.30;52.80;;;;;;5032775;28;20033;-86
2023/05/30 08:19:37;;;;;;;1999.90;999.90;;;18.20;52.30;;;;;;5036399;28;20309;-85
2023/05/30 08:22:03;;;;;;;1999.90;999.90;;;17.90;52.10;;;;;;5032731;28;20525;-86
2023/05/30 08:24:29;;;;;;;1999.90;999.90;;;18.10;53.60;;;;;;5030186;28;20030;-86
2023/05/30 08:26:55;;;;;;;1999.90;999.90;;;18.20;54.30;;;;;;5041364;28;20049;-86
2023/05/30 08:29:20;;;;;;;1999.90;999.90;;;18.10;53.10;;;;;;5038261;28;20052;-86
2023/05/30 08:31:46;;;;;;;1999.90;999.90;;;18.30;51.20;;;;;;5032487;28;20132;-86
2023/05/30 08:34:12;;;;;;;1999.90;999.90;;;18.30;53.10;;;;;;5020799;28;20120;-86
2023/05/30 08:36:37;;;;;;;1999.90;999.90;;;18.40;50.80;;;;;;5017345;28;20029;-86
2023/05/30 08:39:03;;;;;;;1999.90;999.90;;;18.50;51.80;;;;;;5042996;28;20496;-86
2023/05/30 08:41:30;;;;;;;1999.90;999.90;;;18.30;54.00;;;;;;5021079;28;20038;-86
2023/05/30 08:43:56;;;;;;;1999.90;999.90;;;18.50;51.70;;;;;;5039046;28;20036;-84
2023/05/30 08:46:23;;;;;;;1999.90;999.90;;;18.70;51.80;;;;;;5025153;28;20033;-84
2023/05/30 08:48:49;;;;;;;1999.90;999.90;;;18.60;53.60;;;;;;5034279;28;20029;-84
2023/05/30 08:51:19;;;;;;;1999.90;999.90;;;18.60;51.50;;;;;;5040405;28;20025;-84
2023/05/30 08:53:51;;;;;;;1999.90;999.90;;;18.40;51.00;;;;;;5040897;28;20025;-84
2023/05/30 08:56:28;;;;;;;1999.90;999.90;;;18.80;51.40;;;;;;5053154;28;20560;-84
2023/05/30 08:58:57;;;;;;;1999.90;999.90;;;19.20;51.70;;;;;;5045925;28;20508;-84
2023/05/30 09:01:23;;;;;;;1999.90;999.90;;;19.50;49.70;;;;;;5037244;28;20044;-84
2023/05/30 09:03:50;;;;;;;1999.90;999.90;;;19.30;50.40;;;;;;5037443;28;20037;-84
2023/05/30 09:06:17;;;;;;;1999.90;999.90;;;19.30;48.90;;;;;;5042379;28;20044;-84
2023/05/30 09:08:47;;;;;;;1999.90;999.90;;;19.40;49.80;;;;;;5031692;28;20022;-84
2023/05/30 09:11:15;;;;;;;1999.90;999.90;;;19.40;49.40;;;;;;5041832;28;20037;-84
2023/05/30 09:13:41;;;;;;;1999.90;999.90;;;19.60;49.30;;;;;;5032868;28;20037;-84
2023/05/30 09:16:08;;;;;;;1999.90;999.90;;;19.40;47.00;;;;;;5035570;28;20567;-84
2023/05/30 09:18:34;;;;;;;1999.90;999.90;;;19.70;48.90;;;;;;5044498;28;20180;-84
2023/05/30 09:21:01;;;;;;;1999.90;999.90;;;19.90;48.10;;;;;;5037123;28;20520;-83
2023/05/30 09:23:29;;;;;;;1999.90;999.90;;;20.00;47.80;;;;;;5034232;28;20043;-83
2023/05/30 09:25:59;;;;;;;1999.90;999.90;;;20.00;47.70;;;;;;5037844;28;20409;-84
2023/05/30 09:28:26;;;;;;;1999.90;999.90;;;20.20;48.90;;;;;;5036977;28;20014;-83
2023/05/30 09:30:56;;;;;;;1999.90;999.90;;;20.10;47.30;;;;;;5042616;28;20033;-83
2023/05/30 09:33:22;;;;;;;1999.90;999.90;;;20.70;46.70;;;;;;5034208;28;20029;-84
2023/05/30 09:35:56;;;;;;;1999.90;999.90;;;20.60;46.80;;;;;;5037759;28;20118;-84
2023/05/30 09:38:24;;;;;;;1999.90;999.90;;;20.60;45.30;;;;;;5035391;28;20033;-83
2023/05/30 09:41:11;;;;;;;1999.90;999.90;;;20.30;46.10;;;;;;5035899;28;20053;-84
2023/05/30 09:43:38;;;;;;;1999.90;999.90;;;20.50;45.90;;;;;;5042754;28;20106;-84
2023/05/30 09:46:05;;;;;;;1999.90;999.90;;;20.20;46.40;;;;;;5018837;28;20258;-84
2023/05/30 09:48:31;;;;;;;1999.90;999.90;;;20.40;48.70;;;;;;5042816;28;20104;-84
2023/05/30 09:51:01;;;;;;;1999.90;999.90;;;20.50;46.00;;;;;;5038794;28;20060;-83
2023/05/30 09:53:29;;;;;;;1999.90;999.90;;;20.80;47.10;;;;;;5035233;28;20542;-84
2023/05/30 09:55:59;;;;;;;1999.90;999.90;;;20.70;45.90;;;;;;5037464;28;20047;-83
2023/05/30 09:58:25;;;;;;;1999.90;999.90;;;20.90;47.20;;;;;;5024215;28;20032;-84
2023/05/30 10:00:52;;;;;;;1999.90;999.90;;;21.00;46.40;;;;;;5033548;28;20283;-84
2023/05/30 10:03:39;;;;;;;1999.90;999.90;;;21.10;44.00;;;;;;5043043;28;20029;-83
2023/05/30 10:06:15;;;;;;;1999.90;999.90;;;21.30;43.70;;;;;;5033758;28;20405;-83
2023/05/30 10:08:45;;;;;;;1999.90;999.90;;;21.10;44.20;;;;;;5034356;28;20033;-83
2023/05/30 10:11:12;;;;;;;1999.90;999.90;;;21.20;44.00;;;;;;5033909;28;20029;-84
2023/05/30 10:13:38;;;;;;;1999.90;999.90;;;21.30;44.20;;;;;;5032832;28;20040;-83
2023/05/30 10:16:17;;;;;;;1999.90;999.90;;;21.60;45.90;;;;;;5039985;28;20079;-83
2023/05/30 10:18:54;;;;;;;1999.90;999.90;;;21.40;44.40;;;;;;5036766;28;20033;-84
2023/05/30 10:21:22;;;;;;;1999.90;999.90;;;22.00;45.00;;;;;;5038402;28;20041;-83
2023/05/30 10:23:48;;;;;;;1999.90;999.90;;;22.00;44.10;;;;;;5036502;28;20063;-84
2023/05/30 10:26:16;;;;;;;1999.90;999.90;;;21.80;44.30;;;;;;5027542;28;20136;-84
2023/05/30 10:28:45;;;;;;;1999.90;999.90;;;21.80;42.10;;;;;;5037529;28;20519;-84
2023/05/30 10:31:12;;;;;;;1999.90;999.90;;;21.80;43.80;;;;;;5035473;28;20034;-83
2023/05/30 10:33:41;;;;;;;1999.90;999.90;;;21.90;42.10;;;;;;5038190;28;20025;-84
2023/05/30 10:36:07;;;;;;;1999.90;999.90;;;22.00;43.60;;;;;;5039994;28;20409;-84
2023/05/30 10:38:41;;;;;;;1999.90;999.90;;;21.60;44.60;;;;;;5033323;28;20037;-84
2023/05/30 10:41:25;;;;;;;1999.90;999.90;;;21.80;44.00;;;;;;5041045;28;20044;-84
2023/05/30 10:44:18;;;;;;;1999.90;999.90;;;22.80;42.90;;;;;;5034692;28;20021;-85
2023/05/30 10:47:08;;;;;;;1999.90;999.90;;;22.50;41.20;;;;;;5038905;28;20030;-83
2023/05/30 10:49:36;;;;;;;1999.90;999.90;;;22.40;42.50;;;;;;5039420;28;20032;-84
2023/05/30 10:52:06;;;;;;;1999.90;999.90;;;22.40;40.90;;;;;;5028215;28;20041;-83
2023/05/30 10:54:33;;;;;;;;;;;22.60;41.10;;;;;;5019856;28;20099;-84
2023/05/30 10:57:20;;;;;;;1999.90;999.90;;;22.90;39.80;;;;;;5034017;28;20649;-84
2023/05/30 10:59:46;;;;;;;1999.90;999.90;;;22.90;40.10;;;;;;5031634;28;20028;-84
2023/05/30 11:02:20;;;;;;;1999.90;999.90;;;23.20;38.70;;;;;;5037875;28;20511;-84
2023/05/30 11:04:49;;;;;;;1999.90;999.90;;;22.90;39.20;;;;;;5034773;28;20021;-84
2023/05/30 11:07:17;;;;;;;1999.90;999.90;;;23.30;38.80;;;;;;5039885;28;20029;-84
2023/05/30 11:10:04;;;;;;;1999.90;999.90;;;23.60;37.40;;;;;;5037740;28;20033;-88
2023/05/30 11:12:30;;;;;;;1999.90;999.90;;;23.90;37.30;;;;;;5040381;28;20188;-85
2023/05/30 11:14:57;;;;;;;1999.90;999.90;;;23.40;36.00;;;;;;5036760;28;20121;-85
2023/05/30 11:17:32;;;;;;;1999.90;999.90;;;24.10;37.60;;;;;;5021524;28;20037;-83
2023/05/30 11:20:16;;;;;;;1999.90;999.90;;;24.80;34.60;;;;;;5039037;28;20045;-84
2023/05/30 11:23:02;;;;;;;1999.90;999.90;;;25.40;34.80;;;;;;5041739;28;20112;-85
2023/05/30 11:25:29;;;;;;;1999.90;999.90;;;25.40;31.60;;;;;;5039778;28;20049;-84
2023/05/30 11:28:04;;;;;;;1999.90;999.90;;;25.90;34.70;;;;;;5041467;28;20029;-84
2023/05/30 11:30:40;;;;;;;1999.90;999.90;;;25.90;31.80;;;;;;5043354;28;20132;-84
2023/05/30 11:33:10;;;;;;;1999.90;999.90;;;25.50;30.80;;;;;;5038452;28;20018;-83
2023/05/30 11:35:36;;;;;;;1999.90;999.90;;;25.80;32.50;;;;;;5041928;28;20033;-84
2023/05/30 11:38:02;;;;;;;1999.90;999.90;;;26.00;31.20;;;;;;5037258;28;20045;-84
2023/05/30 11:40:28;;;;;;;1999.90;999.90;;;25.30;31.10;;;;;;5039839;28;20423;-82
2023/05/30 11:42:55;;;;;;;1999.90;999.90;;;25.20;31.40;;;;;;5039175;28;20030;-85
2023/05/30 11:45:29;;;;;;;1999.90;999.90;;;26.00;31.50;;;;;;5035321;28;20567;-84
2023/05/30 11:48:07;;;;;;;1999.90;999.90;;;26.20;29.80;;;;;;5025472;28;20040;-85
2023/05/30 11:50:39;;;;;;;1999.90;999.90;;;25.90;30.80;;;;;;5035641;28;20029;-84
2023/05/30 11:53:13;;;;;;;1999.90;999.90;;;26.30;30.80;;;;;;5031125;28;20511;-85
2023/05/30 11:55:39;;;;;;;1999.90;999.90;;;25.80;31.80;;;;;;5031832;28;20026;-84
2023/05/30 11:58:04;;;;;;;1999.90;999.90;;;25.80;30.10;;;;;;5020205;28;20040;-84
2023/05/30 12:00:31;;;;;;;1999.90;999.90;;;26.40;32.10;;;;;;5012737;28;20033;-84
2023/05/30 12:02:57;;;;;;;1999.90;999.90;;;26.70;31.20;;;;;;5028177;28;20084;-85